Latest  Newer  Older  Last 2 hours slideshow  Last 24 hours slideshow  Refresh every 5 minutes 
Current image  Latest image  Rain/snow radar  Cloud coverage sat images 

All time is UTC (add 2 hours to UTC in wintertime, 3 hours to UTC in DST for Latvia local time)

2022/06/29 15:50 EVRA 291550Z 13003KT 090V160 9999 FEW040CB 24/19 Q1016 NOSIG
2022/06/29 15:50 EVLA 291550Z AUTO 29004KT 9999 FEW013/// BKN030/// BKN040/// 22/20 Q1016
2022/06/29 15:50 EVVA 291550Z AUTO 01008KT CAVOK 24/21 Q1016
2022/06/29 15:50 EYKA 291550Z VRB02KT 9000 TS FEW041CB 26/20 Q1015
2022/06/29 15:50 EYPA 291550Z 27003KT 220V010 9999 FEW013 23/19 Q1017
2022/06/29 15:50 EYSA 291550Z 05010KT 020V080 9999 VCSH SCT015CB BKN041 24/19 Q1017 TEMPO SHRA SCT015 CB
2022/06/29 15:50 EYVI 291550Z 08009KT 9999 TSRA BKN042CB 21/19 Q1016 TEMPO VRB30KT 1500 TSRA BKN015CB

2022/06/29 15:50 EEKE 291550Z 16004KT 140V200 9999 FEW030 FEW055CB 24/19 Q1017
2022/06/29 15:50 EEPU 291550Z AUTO 07005KT 050V120 9999 NCD 26/18 Q1017
2022/06/29 15:50 EETN 291550Z 04004KT 9999 FEW035CB 24/21 Q1018 TEMPO 3000 TSRA
2022/06/29 15:50 EETU 291550Z AUTO 15004KT 120V190 9999 NCD 26/18 Q1018
   RIGA AIRPORT     EVRA               56 55N  023 58E   10   X     T          6 LV
   LIEPAJA INTL     EVLA        26406  56 31N  021 06E    4   X                8 LV
   VENTPILS         EVVA               57 21N  021 33E    6   X                8 LV
   KAUNAS           EYKA               54 54N  023 55E   77   X     T          6 LT
   PALANGA INTL     EYPA               55 55N  021 03E   10   X                6 LT
   SIAULIAI INTL    EYSA               55 54N  023 24E  135   X     T          6 LT
   VILNIUS INTL     EYVI        26730  54 38N  025 17E  197   X     T          6 LT
   KARDLA           EEKA        26116  58 59N  022 50E    4   X                8 EE
   KURESSAARE       EEKE               58 14N  022 31E    4   X                8 EE
   PARNU            EEPU               58 25N  024 28E   14   X                8 EE
   TALLINN          EETN        26038  59 24N  024 49E   40   X     T          8 EE
   TARTU            EETU               58 19N  026 41E   67   X                8 EE